sensor_id;sensor_type;location;lat;lon;timestamp;pressure;altitude;pressure_sealevel;temperature;humidity
60465;BME280;46314;52.392;9.758;2023-04-24T00:01:37;99352.78;;;14.25;72.09
60465;BME280;46314;52.392;9.758;2023-04-24T00:04:04;99364.00;;;13.68;73.70
60465;BME280;46314;52.392;9.758;2023-04-24T00:06:30;99354.63;;;13.89;72.70
60465;BME280;46314;52.392;9.758;2023-04-24T00:08:57;99356.41;;;14.09;71.56
60465;BME280;46314;52.392;9.758;2023-04-24T00:11:23;99355.41;;;13.73;71.81
60465;BME280;46314;52.392;9.758;2023-04-24T00:13:50;99353.81;;;13.32;74.40
60465;BME280;46314;52.392;9.758;2023-04-24T00:16:17;99350.38;;;14.23;71.92
60465;BME280;46314;52.392;9.758;2023-04-24T00:18:44;99342.75;;;14.36;70.95
60465;BME280;46314;52.392;9.758;2023-04-24T00:21:10;99349.69;;;13.98;71.52
60465;BME280;46314;52.392;9.758;2023-04-24T00:23:37;99350.28;;;13.75;73.61
60465;BME280;46314;52.392;9.758;2023-04-24T00:26:03;99350.59;;;13.58;73.87
60465;BME280;46314;52.392;9.758;2023-04-24T00:28:30;99347.22;;;13.80;71.66
60465;BME280;46314;52.392;9.758;2023-04-24T00:30:57;99348.50;;;13.83;73.42
60465;BME280;46314;52.392;9.758;2023-04-24T00:33:24;99349.88;;;13.61;72.95
60465;BME280;46314;52.392;9.758;2023-04-24T00:35:51;99345.59;;;13.63;72.71
60465;BME280;46314;52.392;9.758;2023-04-24T00:38:17;99347.97;;;13.77;72.81
60465;BME280;46314;52.392;9.758;2023-04-24T00:40:44;99350.75;;;13.77;72.17
60465;BME280;46314;52.392;9.758;2023-04-24T00:43:10;99353.78;;;14.00;70.86
60465;BME280;46314;52.392;9.758;2023-04-24T00:45:37;99356.50;;;14.29;69.98
60465;BME280;46314;52.392;9.758;2023-04-24T00:48:04;99353.88;;;14.20;70.08
60465;BME280;46314;52.392;9.758;2023-04-24T00:50:32;99360.34;;;14.24;71.07
60465;BME280;46314;52.392;9.758;2023-04-24T00:52:58;99365.22;;;13.55;72.16
60465;BME280;46314;52.392;9.758;2023-04-24T00:55:25;99371.06;;;14.22;69.83
60465;BME280;46314;52.392;9.758;2023-04-24T00:57:52;99373.84;;;13.78;70.82
60465;BME280;46314;52.392;9.758;2023-04-24T01:00:18;99370.09;;;14.46;69.00
60465;BME280;46314;52.392;9.758;2023-04-24T01:02:45;99382.97;;;13.62;68.67
60465;BME280;46314;52.392;9.758;2023-04-24T01:05:13;99379.88;;;14.24;66.17
60465;BME280;46314;52.392;9.758;2023-04-24T01:07:43;99381.09;;;13.95;67.75
60465;BME280;46314;52.392;9.758;2023-04-24T01:10:11;99381.31;;;13.74;68.39
60465;BME280;46314;52.392;9.758;2023-04-24T01:12:39;99383.44;;;14.09;66.26
60465;BME280;46314;52.392;9.758;2023-04-24T01:15:06;99379.13;;;13.95;65.92
60465;BME280;46314;52.392;9.758;2023-04-24T01:17:33;99375.72;;;14.02;66.26
60465;BME280;46314;52.392;9.758;2023-04-24T01:20:00;99372.34;;;13.96;66.25
60465;BME280;46314;52.392;9.758;2023-04-24T01:22:28;99367.41;;;14.34;63.63
60465;BME280;46314;52.392;9.758;2023-04-24T01:24:54;99366.66;;;13.36;67.45
60465;BME280;46314;52.392;9.758;2023-04-24T01:27:21;99360.81;;;13.54;64.43
60465;BME280;46314;52.392;9.758;2023-04-24T01:29:48;99358.56;;;13.88;64.94
60465;BME280;46314;52.392;9.758;2023-04-24T01:32:14;99360.63;;;13.75;63.37
60465;BME280;46314;52.392;9.758;2023-04-24T01:34:41;99359.38;;;14.16;62.80
60465;BME280;46314;52.392;9.758;2023-04-24T01:37:09;99361.00;;;13.89;62.38
60465;BME280;46314;52.392;9.758;2023-04-24T01:39:37;99364.97;;;13.88;63.10
60465;BME280;46314;52.392;9.758;2023-04-24T01:42:04;99367.78;;;13.88;62.23
60465;BME280;46314;52.392;9.758;2023-04-24T01:44:30;99370.41;;;13.69;62.45
60465;BME280;46314;52.392;9.758;2023-04-24T01:46:58;99367.78;;;13.60;63.03
60465;BME280;46314;52.392;9.758;2023-04-24T01:49:24;99354.19;;;13.87;61.88
60465;BME280;46314;52.392;9.758;2023-04-24T01:51:51;99347.59;;;13.79;62.37
60465;BME280;46314;52.392;9.758;2023-04-24T01:54:17;99351.59;;;13.94;61.78
60465;BME280;46314;52.392;9.758;2023-04-24T01:56:45;99350.47;;;14.11;60.72
60465;BME280;46314;52.392;9.758;2023-04-24T01:59:12;99345.16;;;14.22;60.65
60465;BME280;46314;52.392;9.758;2023-04-24T02:01:38;99346.06;;;14.26;60.94
60465;BME280;46314;52.392;9.758;2023-04-24T02:04:06;99337.06;;;13.72;62.39
60465;BME280;46314;52.392;9.758;2023-04-24T02:06:34;99341.72;;;13.27;63.07
60465;BME280;46314;52.392;9.758;2023-04-24T02:09:01;99338.38;;;13.22;64.02
60465;BME280;46314;52.392;9.758;2023-04-24T02:11:27;99343.94;;;13.22;64.34
60465;BME280;46314;52.392;9.758;2023-04-24T02:13:55;99342.31;;;13.33;63.46
60465;BME280;46314;52.392;9.758;2023-04-24T02:16:21;99342.34;;;13.21;63.80
60465;BME280;46314;52.392;9.758;2023-04-24T02:18:48;99336.97;;;13.40;64.12
60465;BME280;46314;52.392;9.758;2023-04-24T02:21:14;99336.66;;;12.93;65.35
60465;BME280;46314;52.392;9.758;2023-04-24T02:23:41;99329.47;;;13.04;64.71
60465;BME280;46314;52.392;9.758;2023-04-24T02:26:07;99323.63;;;13.21;65.23
60465;BME280;46314;52.392;9.758;2023-04-24T02:28:33;99319.47;;;13.15;65.30
60465;BME280;46314;52.392;9.758;2023-04-24T02:31:01;99324.25;;;13.02;65.82
60465;BME280;46314;52.392;9.758;2023-04-24T02:33:28;99321.44;;;13.15;65.58
60465;BME280;46314;52.392;9.758;2023-04-24T02:35:55;99324.03;;;12.95;64.56
60465;BME280;46314;52.392;9.758;2023-04-24T02:38:22;99317.91;;;13.42;63.27
60465;BME280;46314;52.392;9.758;2023-04-24T02:40:48;99332.69;;;13.59;62.78
60465;BME280;46314;52.392;9.758;2023-04-24T02:43:14;99322.25;;;13.56;63.60
60465;BME280;46314;52.392;9.758;2023-04-24T02:45:41;99332.91;;;13.38;64.78
60465;BME280;46314;52.392;9.758;2023-04-24T02:48:09;99328.34;;;13.46;64.27
60465;BME280;46314;52.392;9.758;2023-04-24T02:50:35;99340.44;;;13.25;64.28
60465;BME280;46314;52.392;9.758;2023-04-24T02:53:01;99338.59;;;13.17;64.98
60465;BME280;46314;52.392;9.758;2023-04-24T02:55:28;99337.59;;;13.09;64.65
60465;BME280;46314;52.392;9.758;2023-04-24T02:57:54;99341.84;;;13.19;64.87
60465;BME280;46314;52.392;9.758;2023-04-24T03:00:21;99339.03;;;13.43;64.95
60465;BME280;46314;52.392;9.758;2023-04-24T03:02:47;99344.13;;;13.41;64.65
60465;BME280;46314;52.392;9.758;2023-04-24T03:05:16;99345.13;;;12.96;65.41
60465;BME280;46314;52.392;9.758;2023-04-24T03:07:42;99350.59;;;12.93;65.58
60465;BME280;46314;52.392;9.758;2023-04-24T03:10:09;99342.31;;;13.08;65.22
60465;BME280;46314;52.392;9.758;2023-04-24T03:12:35;99339.16;;;13.35;64.05
60465;BME280;46314;52.392;9.758;2023-04-24T03:15:02;99339.09;;;12.94;64.73
60465;BME280;46314;52.392;9.758;2023-04-24T03:17:29;99332.16;;;12.88;65.11
60465;BME280;46314;52.392;9.758;2023-04-24T03:19:55;99333.53;;;13.06;64.54
60465;BME280;46314;52.392;9.758;2023-04-24T03:22:23;99322.44;;;13.35;63.64
60465;BME280;46314;52.392;9.758;2023-04-24T03:24:50;99336.34;;;12.82;63.65
60465;BME280;46314;52.392;9.758;2023-04-24T03:27:16;99326.03;;;12.82;64.06
60465;BME280;46314;52.392;9.758;2023-04-24T03:29:43;99323.81;;;13.00;63.88
60465;BME280;46314;52.392;9.758;2023-04-24T03:32:09;99327.97;;;12.94;63.86
60465;BME280;46314;52.392;9.758;2023-04-24T03:34:36;99320.00;;;12.43;65.14
60465;BME280;46314;52.392;9.758;2023-04-24T03:37:02;99312.34;;;12.90;64.03
60465;BME280;46314;52.392;9.758;2023-04-24T03:39:30;99317.78;;;12.98;64.33
60465;BME280;46314;52.392;9.758;2023-04-24T03:41:56;99323.19;;;13.19;63.59
60465;BME280;46314;52.392;9.758;2023-04-24T03:44:23;99312.94;;;12.71;64.44
60465;BME280;46314;52.392;9.758;2023-04-24T03:46:49;99307.38;;;12.46;65.41
60465;BME280;46314;52.392;9.758;2023-04-24T03:49:16;99312.72;;;12.76;64.93
60465;BME280;46314;52.392;9.758;2023-04-24T03:51:42;99308.53;;;12.57;64.85
60465;BME280;46314;52.392;9.758;2023-04-24T03:54:08;99307.59;;;12.65;64.47
60465;BME280;46314;52.392;9.758;2023-04-24T03:56:36;99301.13;;;12.74;64.20
60465;BME280;46314;52.392;9.758;2023-04-24T03:59:03;99299.94;;;12.87;64.74
60465;BME280;46314;52.392;9.758;2023-04-24T04:01:29;99302.28;;;12.73;65.33
60465;BME280;46314;52.392;9.758;2023-04-24T04:03:55;99295.06;;;12.84;64.86
60465;BME280;46314;52.392;9.758;2023-04-24T04:06:22;99298.50;;;13.05;64.15
60465;BME280;46314;52.392;9.758;2023-04-24T04:08:49;99297.34;;;12.94;65.06
60465;BME280;46314;52.392;9.758;2023-04-24T04:11:15;99301.34;;;12.81;65.42
60465;BME280;46314;52.392;9.758;2023-04-24T04:13:43;99297.06;;;12.59;66.18
60465;BME280;46314;52.392;9.758;2023-04-24T04:16:09;99291.00;;;12.81;66.74
60465;BME280;46314;52.392;9.758;2023-04-24T04:18:36;99296.69;;;12.85;66.32
60465;BME280;46314;52.392;9.758;2023-04-24T04:21:02;99302.25;;;12.85;66.00
60465;BME280;46314;52.392;9.758;2023-04-24T04:23:29;99302.97;;;12.69;65.50
60465;BME280;46314;52.392;9.758;2023-04-24T04:25:55;99302.28;;;12.36;67.25
60465;BME280;46314;52.392;9.758;2023-04-24T04:28:21;99304.03;;;12.53;66.45
60465;BME280;46314;52.392;9.758;2023-04-24T04:30:49;99306.44;;;12.91;65.77
60465;BME280;46314;52.392;9.758;2023-04-24T04:33:16;99300.31;;;13.14;64.49
60465;BME280;46314;52.392;9.758;2023-04-24T04:35:42;99298.28;;;12.98;66.01
60465;BME280;46314;52.392;9.758;2023-04-24T04:38:08;99302.72;;;12.87;66.76
60465;BME280;46314;52.392;9.758;2023-04-24T04:40:35;99304.81;;;12.78;66.59
60465;BME280;46314;52.392;9.758;2023-04-24T04:43:01;99305.75;;;12.57;67.23
60465;BME280;46314;52.392;9.758;2023-04-24T04:45:28;99304.81;;;12.78;66.83
60465;BME280;46314;52.392;9.758;2023-04-24T04:47:56;99303.81;;;12.58;66.96
60465;BME280;46314;52.392;9.758;2023-04-24T04:50:22;99302.25;;;12.85;66.02
60465;BME280;46314;52.392;9.758;2023-04-24T04:52:49;99311.91;;;13.28;65.11
60465;BME280;46314;52.392;9.758;2023-04-24T04:55:15;99311.88;;;12.87;66.13
60465;BME280;46314;52.392;9.758;2023-04-24T04:57:42;99314.31;;;12.77;66.45
60465;BME280;46314;52.392;9.758;2023-04-24T05:00:09;99320.72;;;13.30;65.48
60465;BME280;46314;52.392;9.758;2023-04-24T05:02:36;99318.16;;;12.72;67.72
60465;BME280;46314;52.392;9.758;2023-04-24T05:05:05;99318.06;;;13.21;66.18
60465;BME280;46314;52.392;9.758;2023-04-24T05:07:31;99319.78;;;13.26;65.39
60465;BME280;46314;52.392;9.758;2023-04-24T05:09:58;99319.09;;;13.29;65.49
60465;BME280;46314;52.392;9.758;2023-04-24T05:12:24;99319.66;;;12.69;66.70
60465;BME280;46314;52.392;9.758;2023-04-24T05:14:51;99319.19;;;12.80;66.43
60465;BME280;46314;52.392;9.758;2023-04-24T05:17:17;99326.81;;;12.95;66.59
60465;BME280;46314;52.392;9.758;2023-04-24T05:19:44;99327.78;;;12.50;67.68
60465;BME280;46314;52.392;9.758;2023-04-24T05:22:12;99324.03;;;13.07;65.89
60465;BME280;46314;52.392;9.758;2023-04-24T05:24:39;99322.66;;;12.40;68.33
60465;BME280;46314;52.392;9.758;2023-04-24T05:27:05;99326.25;;;13.02;66.48
60465;BME280;46314;52.392;9.758;2023-04-24T05:29:32;99323.63;;;13.21;66.33
60465;BME280;46314;52.392;9.758;2023-04-24T05:31:59;99331.75;;;13.39;65.41
60465;BME280;46314;52.392;9.758;2023-04-24T05:34:26;99335.25;;;13.64;64.76
60465;BME280;46314;52.392;9.758;2023-04-24T05:36:52;99340.03;;;14.55;62.19
60465;BME280;46314;52.392;9.758;2023-04-24T05:39:20;99353.00;;;14.32;62.18
60465;BME280;46314;52.392;9.758;2023-04-24T05:41:46;99341.34;;;14.14;61.45
60465;BME280;46314;52.392;9.758;2023-04-24T05:44:13;99350.13;;;14.28;62.67
60465;BME280;46314;52.392;9.758;2023-04-24T05:46:39;99344.72;;;14.83;61.22
60465;BME280;46314;52.392;9.758;2023-04-24T05:49:06;99351.56;;;14.38;60.98
60465;BME280;46314;52.392;9.758;2023-04-24T05:51:32;99350.75;;;14.85;59.90
60465;BME280;46314;52.392;9.758;2023-04-24T05:53:59;99355.78;;;14.16;62.77
60465;BME280;46314;52.392;9.758;2023-04-24T05:56:27;99336.88;;;14.25;62.30
60465;BME280;46314;52.392;9.758;2023-04-24T05:58:53;99347.34;;;14.28;61.98
60465;BME280;46314;52.392;9.758;2023-04-24T06:01:19;99345.44;;;15.15;59.72
60465;BME280;46314;52.392;9.758;2023-04-24T06:03:46;99344.38;;;15.40;57.98
60465;BME280;46314;52.392;9.758;2023-04-24T06:06:13;99347.47;;;15.34;58.06
60465;BME280;46314;52.392;9.758;2023-04-24T06:08:39;99342.44;;;15.24;57.82
60465;BME280;46314;52.392;9.758;2023-04-24T06:11:06;99343.03;;;14.63;59.62
60465;BME280;46314;52.392;9.758;2023-04-24T06:13:33;99348.88;;;14.73;58.24
60465;BME280;46314;52.392;9.758;2023-04-24T06:16:00;99353.09;;;14.51;57.59
60465;BME280;46314;52.392;9.758;2023-04-24T06:18:29;99352.53;;;13.17;60.73
60465;BME280;46314;52.392;9.758;2023-04-24T06:20:55;99360.63;;;13.75;60.02
60465;BME280;46314;52.392;9.758;2023-04-24T06:23:22;99351.84;;;13.07;59.73
60465;BME280;46314;52.392;9.758;2023-04-24T06:25:48;99365.72;;;13.44;58.84
60465;BME280;46314;52.392;9.758;2023-04-24T06:28:15;99355.66;;;13.68;58.00
60465;BME280;46314;52.392;9.758;2023-04-24T06:30:42;99364.22;;;13.35;58.48
60465;BME280;46314;52.392;9.758;2023-04-24T06:33:09;99353.16;;;13.79;56.98
60465;BME280;46314;52.392;9.758;2023-04-24T06:35:46;99360.25;;;13.48;57.30
60465;BME280;46314;52.392;9.758;2023-04-24T06:38:13;99365.41;;;14.18;56.27
60465;BME280;46314;52.392;9.758;2023-04-24T06:40:39;99368.25;;;14.06;56.38
60465;BME280;46314;52.392;9.758;2023-04-24T06:43:05;99369.84;;;14.51;55.70
60465;BME280;46314;52.392;9.758;2023-04-24T06:45:32;99369.41;;;14.49;55.27
60465;BME280;46314;52.392;9.758;2023-04-24T06:48:00;99366.13;;;14.31;54.93
60465;BME280;46314;52.392;9.758;2023-04-24T06:50:26;99369.91;;;14.39;55.52
60465;BME280;46314;52.392;9.758;2023-04-24T06:52:53;99358.63;;;14.64;55.05
60465;BME280;46314;52.392;9.758;2023-04-24T06:55:20;99368.53;;;15.48;52.68
60465;BME280;46314;52.392;9.758;2023-04-24T06:57:46;99372.94;;;14.62;54.62
60465;BME280;46314;52.392;9.758;2023-04-24T07:00:13;99375.31;;;14.95;54.09
60465;BME280;46314;52.392;9.758;2023-04-24T07:02:49;99371.59;;;15.07;52.97
60465;BME280;46314;52.392;9.758;2023-04-24T07:05:17;99377.47;;;14.38;55.14
60465;BME280;46314;52.392;9.758;2023-04-24T07:07:43;99388.50;;;14.19;54.87
60465;BME280;46314;52.392;9.758;2023-04-24T07:10:09;99387.31;;;15.31;53.07
60465;BME280;46314;52.392;9.758;2023-04-24T07:12:36;99378.22;;;14.83;52.67
60465;BME280;46314;52.392;9.758;2023-04-24T07:15:03;99385.41;;;13.92;55.57
60465;BME280;46314;52.392;9.758;2023-04-24T07:17:30;99383.59;;;14.44;53.83
60465;BME280;46314;52.392;9.758;2023-04-24T07:19:56;99387.13;;;14.57;53.35
60465;BME280;46314;52.392;9.758;2023-04-24T07:22:24;99381.44;;;15.01;53.74
60465;BME280;46314;52.392;9.758;2023-04-24T07:24:51;99381.78;;;15.00;51.34
60465;BME280;46314;52.392;9.758;2023-04-24T07:27:17;99383.50;;;15.40;52.24
60465;BME280;46314;52.392;9.758;2023-04-24T07:29:43;99400.94;;;15.52;51.24
60465;BME280;46314;52.392;9.758;2023-04-24T07:32:10;99393.59;;;14.93;51.11
60465;BME280;46314;52.392;9.758;2023-04-24T07:34:37;99400.41;;;14.16;52.63
60465;BME280;46314;52.392;9.758;2023-04-24T07:37:04;99400.41;;;15.27;51.64
60465;BME280;46314;52.392;9.758;2023-04-24T07:39:31;99407.81;;;16.14;47.88
60465;BME280;46314;52.392;9.758;2023-04-24T07:41:58;99414.84;;;15.68;48.31
60465;BME280;46314;52.392;9.758;2023-04-24T07:44:24;99424.56;;;15.55;47.34
60465;BME280;46314;52.392;9.758;2023-04-24T07:46:51;99408.00;;;15.11;48.15
60465;BME280;46314;52.392;9.758;2023-04-24T07:49:17;99419.84;;;16.37;47.70
60465;BME280;46314;52.392;9.758;2023-04-24T07:51:45;99420.88;;;15.51;48.99
60465;BME280;46314;52.392;9.758;2023-04-24T07:54:12;99425.72;;;15.54;48.99
60465;BME280;46314;52.392;9.758;2023-04-24T07:56:40;99422.34;;;14.93;49.14
60465;BME280;46314;52.392;9.758;2023-04-24T07:59:06;99429.81;;;15.41;49.77
60465;BME280;46314;52.392;9.758;2023-04-24T08:01:33;99427.56;;;18.68;43.62
60465;BME280;46314;52.392;9.758;2023-04-24T08:03:59;99420.09;;;17.48;44.27
60465;BME280;46314;52.392;9.758;2023-04-24T08:06:26;99426.50;;;16.95;45.08
60465;BME280;46314;52.392;9.758;2023-04-24T08:08:53;99427.25;;;16.26;47.14
60465;BME280;46314;52.392;9.758;2023-04-24T08:11:19;99423.19;;;16.66;46.88
60465;BME280;46314;52.392;9.758;2023-04-24T08:13:49;99428.13;;;16.96;46.16
60465;BME280;46314;52.392;9.758;2023-04-24T08:16:16;99432.25;;;16.82;46.99
60465;BME280;46314;52.392;9.758;2023-04-24T08:18:42;99435.63;;;16.92;46.54
60465;BME280;46314;52.392;9.758;2023-04-24T08:21:09;99430.22;;;15.75;49.45
60465;BME280;46314;52.392;9.758;2023-04-24T08:23:35;99435.56;;;16.22;48.04
60465;BME280;46314;52.392;9.758;2023-04-24T08:26:01;99427.75;;;17.24;46.26
60465;BME280;46314;52.392;9.758;2023-04-24T08:28:28;99437.25;;;16.07;48.29
60465;BME280;46314;52.392;9.758;2023-04-24T08:30:56;99444.91;;;16.11;48.88
60465;BME280;46314;52.392;9.758;2023-04-24T08:33:23;99446.69;;;16.19;49.61
60465;BME280;46314;52.392;9.758;2023-04-24T08:35:50;99436.09;;;16.74;48.06
60465;BME280;46314;52.392;9.758;2023-04-24T08:38:16;99445.44;;;16.59;47.12
60465;BME280;46314;52.392;9.758;2023-04-24T08:40:43;99451.19;;;17.12;46.08
60465;BME280;46314;52.392;9.758;2023-04-24T08:43:10;99450.09;;;16.74;45.43
60465;BME280;46314;52.392;9.758;2023-04-24T08:45:38;99454.13;;;15.56;47.85
60465;BME280;46314;52.392;9.758;2023-04-24T08:48:07;99452.81;;;17.40;44.56
60465;BME280;46314;52.392;9.758;2023-04-24T08:50:42;99458.81;;;25.24;31.50
60465;BME280;46314;52.392;9.758;2023-04-24T08:53:09;99456.47;;;20.78;35.98
60465;BME280;46314;52.392;9.758;2023-04-24T08:55:35;99456.97;;;18.07;41.65
60465;BME280;46314;52.392;9.758;2023-04-24T08:58:03;99457.13;;;17.34;42.10
60465;BME280;46314;52.392;9.758;2023-04-24T09:00:31;99461.13;;;16.63;43.95
60465;BME280;46314;52.392;9.758;2023-04-24T09:03:00;99448.53;;;16.31;45.14
60465;BME280;46314;52.392;9.758;2023-04-24T09:05:30;99462.75;;;16.02;44.85
60465;BME280;46314;52.392;9.758;2023-04-24T09:07:59;99455.94;;;15.13;44.98
60465;BME280;46314;52.392;9.758;2023-04-24T09:10:28;99455.50;;;15.11;46.51
60465;BME280;46314;52.392;9.758;2023-04-24T09:12:54;99455.19;;;15.32;45.56
60465;BME280;46314;52.392;9.758;2023-04-24T09:15:23;99458.31;;;16.01;44.06
60465;BME280;46314;52.392;9.758;2023-04-24T09:17:50;99464.13;;;15.57;44.39
60465;BME280;46314;52.392;9.758;2023-04-24T09:20:16;99457.19;;;15.00;46.39
60465;BME280;46314;52.392;9.758;2023-04-24T09:22:44;99462.09;;;15.38;46.09
60465;BME280;46314;52.392;9.758;2023-04-24T09:25:11;99469.97;;;14.69;47.89
60465;BME280;46314;52.392;9.758;2023-04-24T09:27:41;99471.66;;;15.21;47.30
60465;BME280;46314;52.392;9.758;2023-04-24T09:30:09;99471.94;;;14.84;47.71
60465;BME280;46314;52.392;9.758;2023-04-24T09:32:35;99467.38;;;14.76;48.22
60465;BME280;46314;52.392;9.758;2023-04-24T09:35:07;99468.19;;;14.48;48.88
60465;BME280;46314;52.392;9.758;2023-04-24T09:37:35;99472.13;;;14.75;48.69
60465;BME280;46314;52.392;9.758;2023-04-24T09:40:11;99478.16;;;14.62;49.47
60465;BME280;46314;52.392;9.758;2023-04-24T09:42:38;99477.28;;;14.89;48.13
60465;BME280;46314;52.392;9.758;2023-04-24T09:45:08;99472.28;;;14.23;49.55
60465;BME280;46314;52.392;9.758;2023-04-24T09:47:37;99480.19;;;14.20;50.53
60465;BME280;46314;52.392;9.758;2023-04-24T09:50:13;99480.25;;;14.52;49.40
60465;BME280;46314;52.392;9.758;2023-04-24T09:52:44;99475.59;;;15.52;47.75
60465;BME280;46314;52.392;9.758;2023-04-24T09:55:16;99474.91;;;14.75;49.05
60465;BME280;46314;52.392;9.758;2023-04-24T09:57:54;99476.41;;;15.52;47.94
60465;BME280;46314;52.392;9.758;2023-04-24T10:00:22;99467.88;;;15.29;47.24
60465;BME280;46314;52.392;9.758;2023-04-24T10:02:58;99480.19;;;15.96;45.95
60465;BME280;46314;52.392;9.758;2023-04-24T10:05:30;99469.47;;;14.23;50.17
60465;BME280;46314;52.392;9.758;2023-04-24T10:07:58;99473.84;;;14.36;51.39
60465;BME280;46314;52.392;9.758;2023-04-24T10:10:27;99476.03;;;13.86;50.75
60465;BME280;46314;52.392;9.758;2023-04-24T10:12:55;99465.16;;;14.53;51.11
60465;BME280;46314;52.392;9.758;2023-04-24T10:15:21;99474.47;;;14.73;50.67
60465;BME280;46314;52.392;9.758;2023-04-24T10:17:49;99476.09;;;15.06;48.27
60465;BME280;46314;52.392;9.758;2023-04-24T10:20:16;99468.34;;;14.84;49.99
60465;BME280;46314;52.392;9.758;2023-04-24T10:22:44;99469.25;;;14.44;50.43
60465;BME280;46314;52.392;9.758;2023-04-24T10:25:12;99464.31;;;14.81;49.30
60465;BME280;46314;52.392;9.758;2023-04-24T10:27:40;99474.72;;;14.68;49.68
60465;BME280;46314;52.392;9.758;2023-04-24T10:30:08;99457.44;;;15.10;50.08
60465;BME280;46314;52.392;9.758;2023-04-24T10:32:35;99461.44;;;14.93;50.10
60465;BME280;46314;52.392;9.758;2023-04-24T10:35:02;99463.41;;;14.93;49.82
60465;BME280;46314;52.392;9.758;2023-04-24T10:37:35;99471.19;;;15.35;50.14
60465;BME280;46314;52.392;9.758;2023-04-24T10:40:04;99470.53;;;14.46;50.67
60465;BME280;46314;52.392;9.758;2023-04-24T10:42:30;99473.59;;;14.41;51.71
60465;BME280;46314;52.392;9.758;2023-04-24T10:44:59;99477.34;;;14.61;50.50
60465;BME280;46314;52.392;9.758;2023-04-24T10:47:25;99475.50;;;14.25;51.00
60465;BME280;46314;52.392;9.758;2023-04-24T10:49:52;99474.69;;;13.43;54.07
60465;BME280;46314;52.392;9.758;2023-04-24T10:52:18;99480.22;;;14.08;52.13
60465;BME280;46314;52.392;9.758;2023-04-24T10:54:45;99485.00;;;13.67;53.03
60465;BME280;46314;52.392;9.758;2023-04-24T10:57:26;99481.22;;;13.88;51.87
60465;BME280;46314;52.392;9.758;2023-04-24T11:00:13;99473.44;;;13.16;54.20
60465;BME280;46314;52.392;9.758;2023-04-24T11:02:40;99481.91;;;13.97;53.10
60465;BME280;46314;52.392;9.758;2023-04-24T11:05:07;99482.66;;;14.38;51.46
60465;BME280;46314;52.392;9.758;2023-04-24T11:10:38;99485.34;;;14.63;51.56
60465;BME280;46314;52.392;9.758;2023-04-24T11:13:04;99484.72;;;14.25;52.37
60465;BME280;46314;52.392;9.758;2023-04-24T11:15:32;99473.50;;;14.37;51.42
60465;BME280;46314;52.392;9.758;2023-04-24T11:17:59;99482.13;;;14.32;51.60
60465;BME280;46314;52.392;9.758;2023-04-24T11:20:25;99476.31;;;13.69;53.04
60465;BME280;46314;52.392;9.758;2023-04-24T11:22:54;99480.72;;;14.54;50.89
60465;BME280;46314;52.392;9.758;2023-04-24T11:25:22;99479.69;;;13.50;53.13
60465;BME280;46314;52.392;9.758;2023-04-24T11:27:49;99485.41;;;13.94;53.05
60465;BME280;46314;52.392;9.758;2023-04-24T11:30:17;99482.41;;;13.87;53.99
60465;BME280;46314;52.392;9.758;2023-04-24T11:32:48;99481.41;;;14.07;52.18
60465;BME280;46314;52.392;9.758;2023-04-24T11:35:18;99476.81;;;14.87;50.09
60465;BME280;46314;52.392;9.758;2023-04-24T11:37:46;99475.41;;;14.93;50.04
60465;BME280;46314;52.392;9.758;2023-04-24T11:40:33;99473.75;;;15.60;49.11
60465;BME280;46314;52.392;9.758;2023-04-24T11:43:00;99471.50;;;15.14;48.44
60465;BME280;46314;52.392;9.758;2023-04-24T11:45:27;99473.19;;;15.34;48.08
60465;BME280;46314;52.392;9.758;2023-04-24T11:47:55;99486.69;;;13.84;51.59
60465;BME280;46314;52.392;9.758;2023-04-24T11:50:23;99481.47;;;13.95;51.29
60465;BME280;46314;52.392;9.758;2023-04-24T11:52:50;99491.03;;;14.66;50.93
60465;BME280;46314;52.392;9.758;2023-04-24T11:55:27;99485.19;;;14.43;51.45
60465;BME280;46314;52.392;9.758;2023-04-24T11:57:55;99485.53;;;13.85;51.62
60465;BME280;46314;52.392;9.758;2023-04-24T12:00:23;99488.16;;;14.06;52.12
60465;BME280;46314;52.392;9.758;2023-04-24T12:02:50;99489.81;;;13.95;51.43
60465;BME280;46314;52.392;9.758;2023-04-24T12:05:23;99493.22;;;15.21;49.24
60465;BME280;46314;52.392;9.758;2023-04-24T12:07:50;99478.97;;;14.62;51.10
60465;BME280;46314;52.392;9.758;2023-04-24T12:10:20;99483.16;;;14.28;51.70
60465;BME280;46314;52.392;9.758;2023-04-24T12:12:47;99495.09;;;14.69;50.26
60465;BME280;46314;52.392;9.758;2023-04-24T12:15:15;99495.22;;;14.16;51.30
60465;BME280;46314;52.392;9.758;2023-04-24T12:17:42;99491.84;;;14.83;50.43
60465;BME280;46314;52.392;9.758;2023-04-24T12:20:10;99500.50;;;14.21;51.49
60465;BME280;46314;52.392;9.758;2023-04-24T12:22:45;99502.16;;;13.81;51.74
60465;BME280;46314;52.392;9.758;2023-04-24T12:25:12;99505.03;;;13.85;51.82
60465;BME280;46314;52.392;9.758;2023-04-24T12:27:39;99511.78;;;14.81;49.29
60465;BME280;46314;52.392;9.758;2023-04-24T12:30:10;99510.41;;;14.18;50.48
60465;BME280;46314;52.392;9.758;2023-04-24T12:32:41;99512.44;;;14.34;50.03
60465;BME280;46314;52.392;9.758;2023-04-24T12:35:08;99518.69;;;14.43;50.16
60465;BME280;46314;52.392;9.758;2023-04-24T12:37:35;99510.25;;;15.67;48.04
60465;BME280;46314;52.392;9.758;2023-04-24T12:40:05;99521.94;;;15.21;48.91
60465;BME280;46314;52.392;9.758;2023-04-24T12:42:32;99534.84;;;14.94;49.16
60465;BME280;46314;52.392;9.758;2023-04-24T12:44:59;99541.16;;;15.23;49.24
60465;BME280;46314;52.392;9.758;2023-04-24T12:47:26;99531.38;;;15.80;47.14
60465;BME280;46314;52.392;9.758;2023-04-24T12:49:53;99540.28;;;14.58;50.03
60465;BME280;46314;52.392;9.758;2023-04-24T12:52:19;99544.84;;;13.98;51.22
60465;BME280;46314;52.392;9.758;2023-04-24T12:54:46;99552.94;;;14.15;52.40
60465;BME280;46314;52.392;9.758;2023-04-24T12:57:13;99554.66;;;13.79;52.35
60465;BME280;46314;52.392;9.758;2023-04-24T12:59:40;99554.78;;;13.46;53.28
60465;BME280;46314;52.392;9.758;2023-04-24T13:02:07;99562.88;;;13.88;52.27
60465;BME280;46314;52.392;9.758;2023-04-24T13:04:33;99570.09;;;13.64;54.06